createdAt,value
2023-01-13T00:01:54.161Z,3.63
2023-01-13T00:06:56.315Z,4.00
2023-01-13T00:11:58.303Z,3.60
2023-01-13T00:17:00.735Z,3.63
2023-01-13T00:22:02.696Z,3.50
2023-01-13T00:27:04.828Z,3.47
2023-01-13T00:32:07.279Z,3.33
2023-01-13T00:37:12.855Z,4.00
2023-01-13T00:42:33.388Z,4.07
2023-01-13T00:47:35.384Z,3.83
2023-01-13T00:52:37.368Z,3.72
2023-01-13T00:57:40.015Z,3.70
2023-01-13T01:02:42.148Z,5.05
2023-01-13T01:07:44.152Z,4.25
2023-01-13T01:12:46.167Z,4.28
2023-01-13T01:17:48.156Z,3.75
2023-01-13T01:22:50.135Z,4.28
2023-01-13T01:27:52.133Z,4.57
2023-01-13T01:32:54.150Z,3.97
2023-01-13T01:37:56.336Z,4.28
2023-01-13T01:43:17.209Z,4.20
2023-01-13T01:48:19.333Z,4.17
2023-01-13T01:53:24.519Z,4.65
2023-01-13T01:58:31.188Z,4.88
2023-01-13T02:03:38.578Z,4.38
2023-01-13T02:08:41.176Z,3.95
2023-01-13T02:13:43.304Z,4.53
2023-01-13T02:19:18.176Z,4.82
2023-01-13T02:25:07.533Z,4.03
2023-01-13T02:30:40.768Z,4.60
2023-01-13T02:35:54.256Z,5.22
2023-01-13T02:41:20.716Z,3.67
2023-01-13T02:46:30.763Z,3.78
2023-01-13T02:51:34.260Z,3.53
2023-01-13T02:56:40.979Z,3.35
2023-01-13T03:01:43.567Z,3.65
2023-01-13T03:07:05.179Z,3.22
2023-01-13T03:12:38.405Z,3.80
2023-01-13T03:17:54.242Z,3.58
2023-01-13T03:23:08.606Z,3.53
2023-01-13T03:28:24.915Z,2.72
2023-01-13T03:33:45.245Z,2.70
2023-01-13T03:38:53.536Z,1.35
2023-01-13T03:44:32.949Z,1.20
2023-01-13T03:49:47.453Z,1.40
2023-01-13T03:54:54.502Z,1.38
2023-01-13T04:00:00.714Z,1.33
2023-01-13T04:05:06.930Z,2.15
2023-01-13T04:10:10.887Z,1.20
2023-01-13T04:15:13.213Z,1.25
2023-01-13T04:20:15.851Z,1.40
2023-01-13T04:25:18.040Z,1.40
2023-01-13T04:30:20.124Z,1.58
2023-01-13T04:35:22.138Z,2.40
2023-01-13T04:40:24.119Z,1.80
2023-01-13T04:45:26.141Z,1.83
2023-01-13T04:50:28.419Z,1.90
2023-01-13T04:55:31.740Z,2.72
2023-01-13T05:00:34.434Z,2.60
2023-01-13T05:05:36.578Z,3.70
2023-01-13T05:10:38.607Z,2.70
2023-01-13T05:16:00.063Z,3.45
2023-01-13T05:21:02.315Z,2.15
2023-01-13T05:26:05.292Z,2.47
2023-01-13T05:31:07.430Z,2.92
2023-01-13T05:36:09.801Z,2.78
2023-01-13T05:41:30.431Z,4.70
2023-01-13T05:46:32.746Z,2.23
2023-01-13T05:51:34.827Z,2.42
2023-01-13T05:56:36.929Z,2.70
2023-01-13T06:01:39.121Z,2.38
2023-01-13T06:06:43.093Z,2.65
2023-01-13T06:11:46.369Z,2.58
2023-01-13T06:16:48.749Z,3.20
2023-01-13T06:21:50.803Z,2.83
2023-01-13T06:26:52.972Z,2.58
2023-01-13T06:31:56.150Z,2.47
2023-01-13T06:36:58.451Z,2.80
2023-01-13T06:42:19.253Z,2.30
2023-01-13T06:47:22.334Z,2.50
2023-01-13T06:52:24.364Z,3.00
2023-01-13T06:57:26.410Z,3.83
2023-01-13T07:02:28.563Z,3.10
2023-01-13T07:07:31.743Z,3.65
2023-01-13T07:12:53.698Z,2.83
2023-01-13T07:17:55.791Z,2.95
2023-01-13T07:22:58.391Z,3.17
2023-01-13T07:28:00.480Z,3.38
2023-01-13T07:33:02.683Z,3.15
2023-01-13T07:38:04.947Z,3.00
2023-01-13T07:43:26.035Z,3.38
2023-01-13T07:48:29.021Z,3.28
2023-01-13T07:53:31.804Z,2.67
2023-01-13T07:58:35.499Z,3.08
2023-01-13T08:03:38.167Z,3.30
2023-01-13T08:08:40.194Z,3.00
2023-01-13T08:13:42.849Z,3.60
2023-01-13T08:18:45.098Z,3.35
2023-01-13T08:23:47.167Z,4.00
2023-01-13T08:28:49.265Z,3.78
2023-01-13T08:33:51.342Z,3.17
2023-01-13T08:38:53.549Z,3.80
2023-01-13T08:43:55.976Z,4.18
2023-01-13T08:48:58.152Z,3.42
2023-01-13T08:54:00.680Z,3.30
2023-01-13T08:59:02.977Z,3.60
2023-01-13T09:04:06.032Z,2.88
2023-01-13T09:09:08.164Z,4.10
2023-01-13T09:14:10.402Z,3.53
2023-01-13T09:19:12.589Z,4.03
2023-01-13T09:24:14.651Z,3.67
2023-01-13T09:29:17.500Z,4.57
2023-01-13T09:34:39.762Z,4.38
2023-01-13T09:39:41.808Z,3.03
2023-01-13T09:44:56.036Z,3.72
2023-01-13T09:50:19.924Z,3.50
2023-01-13T09:55:30.043Z,3.60
2023-01-13T10:00:38.620Z,4.20
2023-01-13T10:05:44.946Z,4.05
2023-01-13T10:10:55.180Z,3.60
2023-01-13T10:16:13.476Z,3.57
2023-01-13T10:21:43.499Z,3.40
2023-01-13T10:27:11.501Z,3.47
2023-01-13T10:32:13.641Z,4.88
2023-01-13T10:37:26.699Z,3.80
2023-01-13T10:42:28.874Z,3.92
2023-01-13T10:47:35.931Z,3.50
2023-01-13T10:52:42.897Z,4.35
2023-01-13T10:57:44.961Z,3.90
2023-01-13T11:03:12.465Z,3.95
2023-01-13T11:08:20.137Z,3.47
2023-01-13T11:13:58.663Z,3.60
2023-01-13T11:19:12.937Z,3.13
2023-01-13T11:24:36.855Z,2.95
2023-01-13T11:29:59.897Z,3.60
2023-01-13T11:35:10.003Z,4.05
2023-01-13T11:40:12.064Z,3.40
2023-01-13T11:45:26.577Z,3.28
2023-01-13T11:50:42.168Z,3.15
2023-01-13T11:55:53.133Z,3.00
2023-01-13T12:01:11.753Z,2.72
2023-01-13T12:06:20.510Z,3.33
2023-01-13T12:12:11.899Z,2.67
2023-01-13T12:17:43.689Z,3.08
2023-01-13T12:28:13.543Z,2.88
2023-01-13T12:33:47.811Z,2.90
2023-01-13T12:38:56.609Z,3.05
2023-01-13T12:44:18.009Z,2.63
2023-01-13T12:49:25.701Z,2.47
2023-01-13T12:54:30.439Z,3.35
2023-01-13T12:59:34.613Z,2.58
2023-01-13T13:04:44.422Z,3.03
2023-01-13T13:09:53.108Z,2.92
2023-01-13T13:14:55.250Z,2.60
2023-01-13T13:19:59.652Z,2.60
2023-01-13T13:25:01.800Z,4.10
2023-01-13T13:30:17.889Z,2.88
2023-01-13T13:35:35.946Z,2.83
2023-01-13T13:41:03.483Z,2.60
2023-01-13T13:46:42.551Z,3.50
2023-01-13T13:51:49.179Z,2.72
2023-01-13T13:56:52.023Z,3.25
2023-01-13T14:02:01.682Z,2.90
2023-01-13T14:07:18.298Z,2.75
2023-01-13T14:12:23.615Z,2.85
2023-01-13T14:17:28.491Z,4.40
2023-01-13T14:22:32.135Z,2.88
2023-01-13T14:27:35.387Z,2.67
2023-01-13T14:32:37.948Z,2.53
2023-01-13T14:37:42.333Z,2.67
2023-01-13T14:42:44.397Z,3.33
2023-01-13T14:47:52.781Z,2.88
2023-01-13T14:52:57.118Z,2.80
2023-01-13T14:58:24.965Z,2.63
2023-01-13T15:03:26.967Z,3.35
2023-01-13T15:08:34.797Z,3.38
2023-01-13T15:13:47.007Z,3.30
2023-01-13T15:18:55.979Z,2.60
2023-01-13T15:23:58.455Z,2.78
2023-01-13T15:29:03.237Z,3.15
2023-01-13T15:34:05.412Z,3.42
2023-01-13T15:39:12.002Z,3.17
2023-01-13T15:44:35.731Z,3.10
2023-01-13T15:49:40.847Z,3.30
2023-01-13T15:54:43.146Z,3.22
2023-01-13T15:59:45.456Z,2.97
2023-01-13T16:04:47.619Z,3.38
2023-01-13T16:09:49.757Z,3.88
2023-01-13T16:14:51.845Z,3.25
2023-01-13T16:19:54.046Z,3.35
2023-01-13T16:24:56.695Z,3.30
2023-01-13T16:29:58.923Z,3.30
2023-01-13T16:35:01.047Z,3.05
2023-01-13T16:40:03.309Z,3.00
2023-01-13T16:45:09.496Z,3.00
2023-01-13T16:50:28.833Z,3.20
2023-01-13T16:55:30.939Z,3.47
2023-01-13T17:00:33.183Z,2.95
2023-01-13T17:05:39.436Z,3.03
2023-01-13T17:10:41.773Z,3.70
2023-01-13T17:15:45.517Z,3.65
2023-01-13T17:20:47.657Z,3.00
2023-01-13T17:25:49.640Z,3.00
2023-01-13T17:30:51.652Z,3.05
2023-01-13T17:35:53.808Z,3.10
2023-01-13T17:41:01.367Z,3.03
2023-01-13T17:46:08.181Z,2.95
2023-01-13T17:51:12.728Z,3.25
2023-01-13T17:56:15.185Z,2.63
2023-01-13T18:01:19.964Z,2.38
2023-01-13T18:06:23.525Z,3.20
2023-01-13T18:11:25.918Z,2.88
2023-01-13T18:16:30.523Z,3.00
2023-01-13T18:21:51.382Z,2.80
2023-01-13T18:27:12.180Z,3.22
2023-01-13T18:32:15.844Z,3.20
2023-01-13T18:37:18.200Z,2.63
2023-01-13T18:42:38.937Z,3.22
2023-01-13T18:47:42.199Z,2.70
2023-01-13T18:52:44.606Z,2.88
2023-01-13T18:57:47.153Z,2.80
2023-01-13T19:08:07.984Z,2.97
2023-01-13T19:13:10.053Z,2.88
2023-01-13T19:18:14.205Z,3.40
2023-01-13T19:23:16.262Z,2.40
2023-01-13T19:28:18.452Z,3.47
2023-01-13T19:33:20.671Z,3.55
2023-01-13T19:38:24.128Z,3.42
2023-01-13T19:43:45.747Z,3.47
2023-01-13T19:48:47.867Z,2.72
2023-01-13T19:53:50.018Z,3.20
2023-01-13T19:58:52.094Z,3.92
2023-01-13T20:03:55.490Z,2.92
2023-01-13T20:08:57.546Z,2.70
2023-01-13T20:14:00.923Z,2.83
2023-01-13T20:19:03.348Z,3.53
2023-01-13T20:24:05.880Z,4.82
2023-01-13T20:29:07.947Z,4.22
2023-01-13T20:34:10.008Z,3.70
2023-01-13T20:39:17.946Z,3.28
2023-01-13T20:44:20.034Z,3.85
2023-01-13T20:49:22.205Z,3.03
2023-01-13T20:54:24.562Z,3.00
2023-01-13T20:59:26.648Z,3.35
2023-01-13T21:04:28.987Z,3.33
2023-01-13T21:09:32.140Z,4.15
2023-01-13T21:14:53.258Z,2.97
2023-01-13T21:19:55.453Z,3.28
2023-01-13T21:24:58.490Z,2.92
2023-01-13T21:30:00.684Z,3.67
2023-01-13T21:35:02.734Z,3.15
2023-01-13T21:40:06.545Z,2.95
2023-01-13T21:45:29.130Z,3.45
2023-01-13T21:50:31.774Z,3.50
2023-01-13T21:55:36.375Z,5.07
2023-01-13T22:00:40.244Z,3.47
2023-01-13T22:05:42.262Z,3.20
2023-01-13T22:10:57.267Z,3.25
2023-01-13T22:16:04.319Z,3.08
2023-01-13T22:21:06.473Z,3.08
2023-01-13T22:26:10.612Z,2.85
2023-01-13T22:31:16.391Z,2.83
2023-01-13T22:36:18.653Z,3.20
2023-01-13T22:41:20.730Z,2.70
2023-01-13T22:46:23.520Z,3.05
2023-01-13T22:51:26.593Z,3.60
2023-01-13T22:56:28.781Z,3.05
2023-01-13T23:01:33.979Z,3.33
2023-01-13T23:06:35.996Z,3.65
2023-01-13T23:11:38.191Z,3.25
2023-01-13T23:16:40.749Z,3.03
2023-01-13T23:21:42.961Z,3.33
2023-01-13T23:26:45.070Z,3.53
2023-01-13T23:31:47.294Z,2.90
2023-01-13T23:36:49.528Z,2.90
2023-01-13T23:41:51.680Z,3.33
2023-01-13T23:46:53.745Z,3.22
2023-01-13T23:51:55.783Z,2.92
2023-01-13T23:56:57.847Z,3.13
